Time;durP1;ratioP1;P1;durP2;ratioP2;P2;SDS_P1;SDS_P2;PMS_P1;PMS_P2;Temp;Humidity;BMP_temperature;BMP_pressure;BME280_temperature;BME280_humidity;BME280_pressure;Samples;Min_cycle;Max_cycle;Signal;HPM_P1;HPM_P2
2022/10/15 00:00:53;;;;;;;56.50;29.35;;;11.20;99.90;;;;;;4986488;28;20124;-86
2022/10/15 00:03:18;;;;;;;64.45;29.77;;;11.20;99.90;;;;;;4970755;28;20117;-87
2022/10/15 00:05:44;;;;;;;57.58;27.95;;;11.30;99.90;;;;;;4969376;28;20509;-87
2022/10/15 00:08:10;;;;;;;50.08;27.85;;;11.30;99.90;;;;;;4983025;28;20149;-87
2022/10/15 00:10:37;;;;;;;47.20;26.65;;;11.30;99.90;;;;;;4975824;28;20129;-87
2022/10/15 00:13:03;;;;;;;51.17;26.88;;;11.30;99.90;;;;;;4975604;28;20489;-86
2022/10/15 00:15:29;;;;;;;58.22;29.17;;;11.30;99.90;;;;;;4989933;28;20087;-86
2022/10/15 00:17:55;;;;;;;66.10;34.00;;;11.30;99.90;;;;;;4986360;28;20494;-86
2022/10/15 00:20:20;;;;;;;60.10;28.83;;;11.30;99.90;;;;;;4986903;28;20066;-85
2022/10/15 00:22:46;;;;;;;50.17;28.08;;;11.30;99.90;;;;;;4988720;28;20120;-85
2022/10/15 00:25:12;;;;;;;52.15;29.83;;;11.30;99.90;;;;;;4971001;28;20042;-87
2022/10/15 00:27:38;;;;;;;62.67;31.25;;;11.30;99.90;;;;;;4971349;28;20038;-87
2022/10/15 00:30:05;;;;;;;75.55;35.90;;;11.30;99.90;;;;;;4987445;28;20042;-86
2022/10/15 00:32:31;;;;;;;68.20;32.90;;;11.30;99.90;;;;;;4986074;28;20404;-86
2022/10/15 00:34:56;;;;;;;67.95;31.30;;;11.30;99.90;;;;;;4987176;28;20034;-86
2022/10/15 00:37:22;;;;;;;69.53;32.15;;;11.30;99.90;;;;;;4988266;28;20034;-86
2022/10/15 00:39:48;;;;;;;78.07;36.70;;;11.30;99.90;;;;;;4970596;28;20038;-87
2022/10/15 00:42:14;;;;;;;72.25;34.70;;;11.30;99.90;;;;;;4987295;28;20349;-86
2022/10/15 00:44:54;;;;;;;86.55;37.85;;;11.30;99.90;;;;;;4981233;28;20046;-86
2022/10/15 00:47:34;;;;;;;67.57;35.63;;;11.30;99.90;;;;;;4986327;28;20096;-86
2022/10/15 00:50:11;;;;;;;80.03;37.92;;;11.40;99.90;;;;;;4971427;28;20141;-86
2022/10/15 00:52:42;;;;;;;69.28;35.33;;;11.40;99.90;;;;;;4971885;28;20097;-86
2022/10/15 00:55:25;;;;;;;71.20;34.05;;;11.30;99.90;;;;;;4988159;28;20261;-87
2022/10/15 00:57:52;;;;;;;72.68;36.88;;;11.40;99.90;;;;;;4986914;28;20101;-85
2022/10/15 01:00:18;;;;;;;71.20;35.83;;;11.40;99.90;;;;;;4986518;28;20852;-87
2022/10/15 01:02:44;;;;;;;68.88;35.60;;;11.40;99.90;;;;;;4974313;28;20056;-86
2022/10/15 01:05:12;;;;;;;86.72;37.03;;;11.40;99.90;;;;;;4987648;28;20507;-86
2022/10/15 01:07:37;;;;;;;64.25;33.90;;;11.60;99.90;;;;;;4986638;28;20046;-87
2022/10/15 01:10:06;;;;;;;60.78;33.42;;;11.70;99.90;;;;;;4987830;28;20108;-86
2022/10/15 01:12:34;;;;;;;76.03;35.85;;;11.40;99.90;;;;;;4972595;28;20078;-87
2022/10/15 01:15:18;;;;;;;63.67;34.78;;;11.40;99.90;;;;;;4985641;28;20065;-88
2022/10/15 01:17:52;;;;;;;76.40;36.00;;;11.40;99.90;;;;;;4968393;28;20417;-86
2022/10/15 01:20:40;;;;;;;63.95;34.08;;;11.40;99.90;;;;;;4992001;28;20619;-86
2022/10/15 01:23:52;;;;;;;68.20;34.13;;;11.40;99.90;;;;;;5000612;28;20086;-88
2022/10/15 01:26:36;;;;;;;64.50;34.60;;;11.40;99.90;;;;;;4968683;28;20153;-86
2022/10/15 01:29:34;;;;;;;85.18;36.13;;;11.40;99.90;;;;;;4987765;28;20408;-86
2022/10/15 01:32:19;;;;;;;74.78;35.95;;;11.40;99.90;;;;;;4970158;28;20489;-85
2022/10/15 01:35:17;;;;;;;81.20;35.72;;;11.40;99.90;;;;;;4988750;28;20046;-86
2022/10/15 01:38:02;;;;;;;54.35;30.25;;;11.50;99.90;;;;;;4991633;28;20050;-86
2022/10/15 01:41:00;;;;;;;63.10;33.30;;;11.40;99.90;;;;;;4991443;28;20123;-86
2022/10/15 01:43:37;;;;;;;71.55;33.90;;;11.50;99.90;;;;;;4962484;28;20059;-86
2022/10/15 01:46:09;;;;;;;50.45;30.42;;;11.40;99.90;;;;;;4980718;28;20042;-86
2022/10/15 01:48:36;;;;;;;;;;;11.50;99.90;;;;;;4968231;28;20043;-86
2022/10/15 01:51:04;;;;;;;66.68;32.15;;;11.50;99.90;;;;;;4991248;28;19925;-86
2022/10/15 01:53:33;;;;;;;59.70;32.15;;;11.50;99.90;;;;;;4991308;28;20057;-87
2022/10/15 01:56:08;;;;;;;69.07;34.42;;;11.50;99.90;;;;;;4977208;28;20047;-86
2022/10/15 01:58:39;;;;;;;71.18;34.13;;;11.50;99.90;;;;;;4990370;28;20129;-85
2022/10/15 02:01:05;;;;;;;85.68;36.28;;;11.50;99.90;;;;;;4983769;28;20141;-86
2022/10/15 02:03:30;;;;;;;60.53;32.72;;;11.60;99.90;;;;;;4971570;28;20078;-86
2022/10/15 02:06:07;;;;;;;61.95;32.80;;;11.50;99.90;;;;;;4980934;28;20065;-86
2022/10/15 02:08:41;;;;;;;58.22;30.85;;;11.20;99.90;;;;;;4976634;28;20494;-87
2022/10/15 02:11:14;;;;;;;62.22;31.40;;;11.40;99.90;;;;;;5004996;28;20055;-85
2022/10/15 02:14:13;;;;;;;55.65;30.25;;;11.50;99.90;;;;;;4989288;28;20050;-88
2022/10/15 02:17:09;;;;;;;51.50;27.75;;;11.50;99.90;;;;;;4989585;28;20050;-86
2022/10/15 02:19:55;;;;;;;60.55;29.80;;;11.50;99.90;;;;;;4982075;28;20145;-86
2022/10/15 02:22:40;;;;;;;53.08;27.40;;;11.50;99.90;;;;;;4990277;28;20035;-86
2022/10/15 02:25:14;;;;;;;58.25;30.63;;;11.50;99.90;;;;;;4978800;28;20093;-87
2022/10/15 02:27:41;;;;;;;54.78;29.45;;;11.50;99.90;;;;;;4989761;28;20046;-87
2022/10/15 02:30:09;;;;;;;57.45;30.63;;;11.50;99.90;;;;;;4973870;28;20531;-86
2022/10/15 02:32:37;;;;;;;57.97;30.88;;;11.50;99.90;;;;;;4985787;28;20154;-86
2022/10/15 02:35:07;;;;;;;58.67;30.80;;;11.50;99.90;;;;;;4974299;28;20094;-86
2022/10/15 02:37:36;;;;;;;63.40;29.80;;;11.50;99.90;;;;;;4982329;28;20122;-87
2022/10/15 02:40:02;;;;;;;63.40;31.77;;;11.50;99.90;;;;;;4983276;28;20051;-86
2022/10/15 02:42:28;;;;;;;51.47;28.98;;;11.60;99.90;;;;;;4979492;28;20046;-87
2022/10/15 02:44:57;;;;;;;56.95;26.80;;;11.60;99.90;;;;;;4972894;28;20046;-88
2022/10/15 02:47:22;;;;;;;51.15;28.88;;;11.60;99.90;;;;;;4971731;28;20035;-87
2022/10/15 02:49:48;;;;;;;47.30;27.85;;;11.60;99.90;;;;;;4988187;28;20092;-87
2022/10/15 02:52:13;;;;;;;51.08;28.70;;;11.60;99.90;;;;;;4990110;28;20480;-88
2022/10/15 02:54:39;;;;;;;53.42;28.80;;;11.60;99.90;;;;;;4990052;28;20050;-88
2022/10/15 02:57:04;;;;;;;52.65;29.85;;;12.30;99.90;;;;;;4989586;28;20054;-87
2022/10/15 02:59:30;;;;;;;48.97;25.83;;;11.90;99.90;;;;;;4989231;28;20054;-87
2022/10/15 03:01:56;;;;;;;56.13;28.77;;;12.20;99.90;;;;;;4990993;28;20149;-87
2022/10/15 03:04:21;;;;;;;57.00;29.42;;;11.60;99.90;;;;;;4974248;28;20043;-87
2022/10/15 03:06:47;;;;;;;53.03;27.67;;;11.60;99.90;;;;;;4973404;28;20456;-87
2022/10/15 03:09:12;;;;;;;51.33;26.33;;;11.60;99.90;;;;;;4970468;28;20047;-87
2022/10/15 03:11:38;;;;;;;63.33;29.58;;;11.60;99.90;;;;;;4984256;28;20077;-86
2022/10/15 03:14:04;;;;;;;64.15;30.25;;;11.70;99.90;;;;;;4973821;28;20042;-87
2022/10/15 03:16:30;;;;;;;52.03;27.20;;;11.60;99.90;;;;;;4986403;28;20062;-87
2022/10/15 03:18:55;;;;;;;49.97;27.92;;;11.60;99.90;;;;;;4973971;28;20051;-86
2022/10/15 03:21:21;;;;;;;52.33;27.77;;;11.50;99.90;;;;;;4979404;28;20042;-87
2022/10/15 03:23:46;;;;;;;48.75;26.40;;;11.60;99.90;;;;;;5006040;28;20081;-87
2022/10/15 03:26:12;;;;;;;54.15;27.70;;;12.10;99.90;;;;;;4973906;28;20413;-86
2022/10/15 03:28:38;;;;;;;50.95;27.98;;;11.50;99.90;;;;;;4969635;28;20043;-86
2022/10/15 03:31:04;;;;;;;53.88;29.38;;;11.50;99.90;;;;;;4997706;28;20225;-87
2022/10/15 03:33:30;;;;;;;51.95;28.50;;;11.50;99.90;;;;;;4991424;28;20492;-87
2022/10/15 03:35:56;;;;;;;54.53;29.30;;;11.50;99.90;;;;;;4971987;28;20133;-87
2022/10/15 03:38:22;;;;;;;57.25;29.10;;;11.50;99.90;;;;;;4986100;28;20138;-86
2022/10/15 03:40:47;;;;;;;53.45;27.35;;;11.50;99.90;;;;;;5000746;28;20181;-87
2022/10/15 03:43:13;;;;;;;52.75;27.77;;;11.50;99.90;;;;;;5001778;28;20043;-86
2022/10/15 03:45:39;;;;;;;54.33;28.63;;;11.50;99.90;;;;;;4984569;28;20190;-86
2022/10/15 03:48:05;;;;;;;45.65;25.63;;;11.50;99.90;;;;;;4981965;28;20089;-86
2022/10/15 03:50:30;;;;;;;56.22;27.30;;;11.50;99.90;;;;;;4972405;28;20389;-87
2022/10/15 03:52:56;;;;;;;48.25;27.23;;;11.50;99.90;;;;;;4972641;28;20038;-86
2022/10/15 03:55:21;;;;;;;48.95;28.60;;;11.50;99.90;;;;;;4988032;28;20042;-87
2022/10/15 03:57:47;;;;;;;59.92;29.83;;;11.50;99.90;;;;;;4982220;28;20057;-86
2022/10/15 04:00:13;;;;;;;49.65;28.50;;;11.40;99.90;;;;;;4988101;28;20050;-86
2022/10/15 04:02:40;;;;;;;54.33;28.88;;;11.40;99.90;;;;;;4988061;28;20050;-86
2022/10/15 04:05:05;;;;;;;51.35;27.42;;;11.70;99.90;;;;;;4972261;28;20497;-87
2022/10/15 04:07:31;;;;;;;48.67;28.55;;;11.40;99.90;;;;;;4972269;28;20043;-87
2022/10/15 04:09:56;;;;;;;55.83;30.90;;;11.40;99.90;;;;;;4979826;28;20495;-86
2022/10/15 04:12:22;;;;;;;56.20;30.95;;;11.40;99.90;;;;;;4999673;28;20051;-85
2022/10/15 04:14:48;;;;;;;55.08;30.77;;;11.60;99.90;;;;;;4974088;28;20043;-87
2022/10/15 04:17:14;;;;;;;60.83;31.85;;;11.40;99.90;;;;;;4971222;28;20038;-86
2022/10/15 04:19:40;;;;;;;52.00;30.30;;;12.00;99.90;;;;;;4988131;28;20050;-87
2022/10/15 04:22:05;;;;;;;64.75;34.50;;;11.40;99.90;;;;;;4987621;28;20109;-87
2022/10/15 04:24:31;;;;;;;59.13;32.60;;;11.30;99.90;;;;;;4972237;28;20034;-87
2022/10/15 04:26:57;;;;;;;58.25;34.00;;;11.30;99.90;;;;;;4987507;28;20506;-87
2022/10/15 04:29:22;;;;;;;59.78;33.35;;;11.30;99.90;;;;;;4971729;28;20420;-87
2022/10/15 04:31:48;;;;;;;61.15;33.78;;;11.20;99.90;;;;;;4985987;28;20050;-87
2022/10/15 04:34:14;;;;;;;60.03;32.85;;;11.90;99.90;;;;;;4981780;28;20066;-87
2022/10/15 04:36:39;;;;;;;68.30;34.58;;;11.10;99.90;;;;;;4984590;28;20081;-87
2022/10/15 04:39:05;;;;;;;58.55;33.15;;;11.30;99.90;;;;;;4982814;28;20412;-87
2022/10/15 04:41:31;;;;;;;57.42;32.00;;;11.80;99.90;;;;;;4957486;28;20467;-87
2022/10/15 04:43:57;;;;;;;67.65;33.42;;;11.80;99.90;;;;;;4988450;28;20046;-87
2022/10/15 04:46:23;;;;;;;56.70;31.55;;;11.00;99.90;;;;;;4986880;28;20034;-87
2022/10/15 04:48:48;;;;;;;65.00;32.42;;;11.90;99.90;;;;;;4986590;28;20051;-87
2022/10/15 04:51:17;;;;;;;54.20;31.33;;;10.90;99.90;;;;;;4981315;28;20046;-87
2022/10/15 04:53:42;;;;;;;64.72;33.45;;;10.80;99.90;;;;;;4972276;28;20077;-86
2022/10/15 04:56:14;;;;;;;57.28;31.05;;;10.80;99.90;;;;;;4971647;28;20092;-87
2022/10/15 04:58:41;;;;;;;60.40;32.15;;;10.80;99.90;;;;;;4971299;28;20212;-86
2022/10/15 05:01:12;;;;;;;51.38;29.88;;;10.80;99.90;;;;;;4987031;28;20046;-88
2022/10/15 05:03:38;;;;;;;55.30;30.40;;;10.70;99.90;;;;;;4975655;28;20050;-88
2022/10/15 05:06:09;;;;;;;63.83;33.72;;;10.70;99.90;;;;;;4969151;28;20560;-87
2022/10/15 05:08:36;;;;;;;54.03;31.02;;;11.30;99.90;;;;;;4971550;28;20042;-88
2022/10/15 05:11:04;;;;;;;58.63;31.30;;;10.70;99.90;;;;;;4971150;28;20489;-87
2022/10/15 05:13:31;;;;;;;63.13;31.77;;;10.60;99.90;;;;;;4975885;28;20054;-87
2022/10/15 05:15:57;;;;;;;70.55;35.47;;;10.60;99.90;;;;;;4971017;28;20050;-87
2022/10/15 05:18:22;;;;;;;74.68;36.35;;;10.70;99.90;;;;;;4987955;28;20050;-87
2022/10/15 05:20:48;;;;;;;74.93;35.65;;;10.70;99.90;;;;;;4987239;28;20416;-87
2022/10/15 05:23:14;;;;;;;65.55;34.70;;;10.70;99.90;;;;;;4987159;28;20042;-87
2022/10/15 05:25:39;;;;;;;74.88;36.58;;;10.70;99.90;;;;;;4976937;28;20466;-87
2022/10/15 05:28:05;;;;;;;62.10;34.65;;;10.70;99.90;;;;;;4993450;28;20043;-87
2022/10/15 05:30:33;;;;;;;67.25;35.42;;;10.70;99.90;;;;;;4999629;28;20031;-88
2022/10/15 05:32:58;;;;;;;64.40;32.95;;;10.80;99.90;;;;;;4985167;28;20046;-88
2022/10/15 05:35:24;;;;;;;75.78;36.80;;;10.80;99.90;;;;;;4971352;28;20050;-88
2022/10/15 05:37:50;;;;;;;77.05;36.28;;;10.80;99.90;;;;;;4985919;28;20050;-86
2022/10/15 05:40:16;;;;;;;74.13;36.70;;;10.80;99.90;;;;;;4986574;28;20133;-86
2022/10/15 05:42:41;;;;;;;70.57;36.33;;;10.80;99.90;;;;;;4980808;28;20381;-87
2022/10/15 05:45:07;;;;;;;72.22;35.42;;;10.80;99.90;;;;;;5002948;28;20089;-86
2022/10/15 05:47:33;;;;;;;75.25;35.00;;;10.80;99.90;;;;;;4985700;28;20046;-89
2022/10/15 05:49:58;;;;;;;68.93;32.78;;;10.90;99.90;;;;;;4970508;28;20058;-88
2022/10/15 05:52:24;;;;;;;65.10;32.97;;;10.90;99.90;;;;;;4983125;28;20053;-89
2022/10/15 05:54:49;;;;;;;68.28;34.05;;;10.90;99.90;;;;;;4971006;28;20046;-87
2022/10/15 05:57:15;;;;;;;68.50;34.70;;;10.90;99.90;;;;;;4981223;28;20043;-88
2022/10/15 05:59:41;;;;;;;75.50;38.10;;;10.90;99.90;;;;;;4962788;28;20133;-89
2022/10/15 06:02:08;;;;;;;77.07;36.90;;;10.90;99.90;;;;;;4952854;28;20117;-89
2022/10/15 06:04:34;;;;;;;65.97;34.20;;;11.00;99.90;;;;;;4968887;28;20135;-89
2022/10/15 06:06:59;;;;;;;73.15;36.53;;;11.80;99.90;;;;;;4962359;28;20054;-88
2022/10/15 06:09:27;;;;;;;83.32;38.55;;;11.00;99.90;;;;;;4988480;28;20394;-89
2022/10/15 06:11:52;;;;;;;74.38;36.55;;;11.30;99.90;;;;;;4988270;28;20050;-89
2022/10/15 06:14:18;;;;;;;83.53;38.15;;;12.00;99.90;;;;;;4971810;28;20039;-89
2022/10/15 06:16:49;;;;;;;78.68;37.70;;;11.40;99.90;;;;;;4970892;28;20043;-89
2022/10/15 06:19:15;;;;;;;83.45;38.83;;;11.10;99.90;;;;;;4970047;28;20058;-89
2022/10/15 06:21:40;;;;;;;75.65;38.10;;;11.70;99.90;;;;;;4958622;28;20039;-89
2022/10/15 06:24:06;;;;;;;73.50;37.03;;;11.10;99.90;;;;;;4972453;28;20043;-89
2022/10/15 06:26:32;;;;;;;75.15;37.03;;;11.00;99.90;;;;;;4971659;28;20047;-89
2022/10/15 06:28:58;;;;;;;77.10;37.97;;;11.20;99.90;;;;;;4975143;28;20122;-89
2022/10/15 06:31:24;;;;;;;81.07;38.55;;;11.20;99.90;;;;;;4956103;28;20043;-89
2022/10/15 06:33:49;;;;;;;79.07;37.67;;;12.10;99.90;;;;;;4984663;28;20602;-89
2022/10/15 06:36:15;;;;;;;78.93;38.42;;;11.20;99.90;;;;;;4970399;28;20413;-88
2022/10/15 06:38:43;;;;;;;79.28;37.75;;;12.10;99.90;;;;;;4983401;28;20050;-86
2022/10/15 06:41:09;;;;;;;77.35;37.47;;;11.30;99.90;;;;;;4980392;28;20061;-88
2022/10/15 06:43:35;;;;;;;73.80;38.08;;;11.90;99.90;;;;;;4988587;28;20125;-89
2022/10/15 06:46:01;;;;;;;74.28;38.00;;;10.70;99.90;;;;;;4972482;28;20046;-89
2022/10/15 06:48:26;;;;;;;63.42;33.78;;;11.40;99.90;;;;;;4956396;28;20450;-90
2022/10/15 06:50:52;;;;;;;68.85;36.30;;;11.60;99.90;;;;;;4972545;28;20034;-89
2022/10/15 06:53:18;;;;;;;77.55;36.95;;;11.50;99.90;;;;;;4956947;28;20512;-87
2022/10/15 06:55:43;;;;;;;78.50;37.75;;;11.50;99.90;;;;;;4973381;28;20078;-89
2022/10/15 06:58:09;;;;;;;70.03;37.80;;;11.60;99.90;;;;;;4971425;28;20047;-89
2022/10/15 07:00:40;;;;;;;70.35;36.40;;;11.60;99.90;;;;;;4955727;28;20054;-90
2022/10/15 07:03:06;;;;;;;62.27;33.27;;;12.00;99.90;;;;;;4972477;28;20151;-89
2022/10/15 07:05:32;;;;;;;74.43;37.97;;;11.80;99.90;;;;;;4972714;28;20113;-89
2022/10/15 07:07:58;;;;;;;67.10;34.47;;;11.80;99.90;;;;;;4977783;28;20101;-91
2022/10/15 07:10:26;;;;;;;69.45;37.90;;;12.00;99.90;;;;;;4976553;28;20054;-89
2022/10/15 07:12:53;;;;;;;72.22;36.47;;;11.90;99.90;;;;;;4971067;28;20077;-87
2022/10/15 07:15:20;;;;;;;66.63;36.47;;;12.10;99.90;;;;;;4973484;28;20054;-87
2022/10/15 07:17:56;;;;;;;69.88;36.63;;;12.00;99.90;;;;;;4971765;28;20129;-87
2022/10/15 07:20:22;;;;;;;64.63;35.92;;;12.10;99.90;;;;;;4989347;28;20046;-87
2022/10/15 07:22:48;;;;;;;63.78;34.42;;;12.10;99.90;;;;;;4982413;28;20049;-87
2022/10/15 07:25:14;;;;;;;65.28;35.65;;;12.10;99.90;;;;;;4969784;28;20445;-87
2022/10/15 07:27:39;;;;;;;67.28;37.05;;;12.20;99.90;;;;;;4969982;28;20094;-87
2022/10/15 07:30:07;;;;;;;70.32;37.05;;;12.10;99.90;;;;;;4970018;28;20060;-87
2022/10/15 07:32:36;;;;;;;63.30;34.42;;;12.30;99.90;;;;;;4969988;28;20046;-87
2022/10/15 07:35:02;;;;;;;64.20;35.30;;;12.30;99.90;;;;;;4953504;28;20061;-87
2022/10/15 07:37:27;;;;;;;62.05;36.03;;;12.40;99.90;;;;;;4974964;28;20491;-86
2022/10/15 07:39:54;;;;;;;63.70;35.28;;;12.40;99.90;;;;;;4989307;28;20050;-87
2022/10/15 07:42:19;;;;;;;65.00;34.28;;;12.40;99.90;;;;;;4972622;28;20046;-87
2022/10/15 07:44:45;;;;;;;57.95;33.72;;;12.40;99.90;;;;;;4989036;28;20092;-87
2022/10/15 07:47:10;;;;;;;56.45;34.17;;;12.80;99.90;;;;;;4988811;28;20053;-87
2022/10/15 07:49:36;;;;;;;56.50;33.05;;;12.50;99.90;;;;;;4988826;28;20133;-87
2022/10/15 07:52:01;;;;;;;55.28;32.85;;;13.50;99.90;;;;;;4988463;28;20043;-87
2022/10/15 07:54:27;;;;;;;54.15;32.17;;;12.50;99.90;;;;;;4970087;28;20110;-86
2022/10/15 07:56:53;;;;;;;58.53;32.60;;;12.50;99.90;;;;;;4968726;28;20051;-87
2022/10/15 07:59:18;;;;;;;57.53;32.75;;;13.60;99.90;;;;;;4969380;28;20554;-87
2022/10/15 08:01:44;;;;;;;55.33;33.15;;;12.70;99.90;;;;;;4969496;28;20070;-87
2022/10/15 08:04:09;;;;;;;53.38;33.78;;;12.80;99.90;;;;;;4969666;28;20516;-87
2022/10/15 08:06:35;;;;;;;53.75;31.90;;;12.80;99.90;;;;;;4969512;28;20043;-87
2022/10/15 08:09:03;;;;;;;53.90;32.53;;;13.00;99.90;;;;;;4969464;28;20346;-87
2022/10/15 08:11:28;;;;;;;46.65;31.10;;;13.30;99.90;;;;;;4965524;28;20132;-86
2022/10/15 08:13:54;;;;;;;49.20;31.17;;;13.10;99.90;;;;;;4971093;28;20492;-88
2022/10/15 08:16:19;;;;;;;49.95;33.30;;;13.10;99.90;;;;;;4975254;28;20038;-88
2022/10/15 08:18:45;;;;;;;48.67;32.28;;;13.20;99.90;;;;;;4989399;28;20038;-87
2022/10/15 08:21:11;;;;;;;46.88;32.95;;;13.20;99.90;;;;;;4962832;28;20070;-88
2022/10/15 08:23:36;;;;;;;53.20;34.38;;;13.20;99.90;;;;;;5002352;28;20051;-88
2022/10/15 08:26:03;;;;;;;44.88;31.77;;;13.30;99.90;;;;;;5005446;28;20478;-87
2022/10/15 08:28:30;;;;;;;49.70;32.50;;;13.40;99.90;;;;;;4977456;28;20070;-87
2022/10/15 08:30:57;;;;;;;44.40;30.80;;;13.50;99.90;;;;;;4987266;28;20129;-87
2022/10/15 08:33:23;;;;;;;48.30;32.13;;;13.50;99.90;;;;;;4970529;28;20082;-85
2022/10/15 08:35:49;;;;;;;44.63;29.70;;;13.50;99.90;;;;;;4952448;28;20303;-86
2022/10/15 08:38:14;;;;;;;43.35;31.50;;;13.50;99.90;;;;;;4968558;28;20061;-86
2022/10/15 08:40:45;;;;;;;49.40;33.08;;;13.50;99.90;;;;;;4972156;28;20088;-86
2022/10/15 08:43:39;;;;;;;48.78;33.90;;;13.50;99.90;;;;;;4986804;28;20046;-86
2022/10/15 08:46:12;;;;;;;46.00;31.70;;;13.50;99.90;;;;;;4986683;28;20427;-88
2022/10/15 08:48:49;;;;;;;47.47;33.10;;;13.50;99.90;;;;;;4989550;28;20054;-88
2022/10/15 08:51:21;;;;;;;45.15;30.90;;;13.50;99.90;;;;;;4971669;28;20534;-88
2022/10/15 08:53:52;;;;;;;46.75;32.85;;;13.50;99.90;;;;;;4984954;28;20053;-87
2022/10/15 08:56:26;;;;;;;47.63;32.80;;;13.50;99.90;;;;;;4972803;28;20045;-85
2022/10/15 08:58:54;;;;;;;51.35;33.92;;;13.40;99.90;;;;;;4987926;28;20060;-86
2022/10/15 09:01:31;;;;;;;49.20;33.55;;;13.90;99.90;;;;;;4971859;28;20057;-87
2022/10/15 09:04:15;;;;;;;48.40;32.70;;;13.40;99.90;;;;;;4976616;28;20042;-87
2022/10/15 09:06:41;;;;;;;46.78;31.38;;;13.60;99.90;;;;;;4969908;28;20179;-86
2022/10/15 09:09:29;;;;;;;47.60;31.15;;;13.40;99.90;;;;;;4985047;28;20042;-87
2022/10/15 09:12:15;;;;;;;51.42;32.92;;;13.30;99.90;;;;;;4968292;28;20461;-87
2022/10/15 09:14:45;;;;;;;45.53;28.55;;;13.30;99.90;;;;;;4968521;28;20504;-87
2022/10/15 09:17:20;;;;;;;47.72;27.35;;;13.30;99.90;;;;;;4977332;28;20046;-87
2022/10/15 09:19:49;;;;;;;44.50;27.77;;;13.40;99.90;;;;;;4971503;28;20088;-87
2022/10/15 09:22:18;;;;;;;50.10;27.85;;;13.10;99.90;;;;;;4986000;28;20323;-88
2022/10/15 09:24:44;;;;;;;45.17;27.55;;;13.10;99.90;;;;;;4987390;28;20056;-87
2022/10/15 09:27:32;;;;;;;45.35;26.00;;;13.10;99.90;;;;;;4975958;28;20097;-87
2022/10/15 09:30:16;;;;;;;45.85;25.73;;;13.10;99.90;;;;;;4967548;28;20493;-87
2022/10/15 09:32:50;;;;;;;40.28;23.52;;;13.10;99.90;;;;;;4958099;28;20047;-88
2022/10/15 09:35:25;;;;;;;35.70;22.75;;;12.80;99.90;;;;;;4987174;28;20051;-88
2022/10/15 09:37:57;;;;;;;37.47;22.60;;;13.10;99.90;;;;;;4983941;28;20046;-83
2022/10/15 09:40:52;;;;;;;38.90;22.67;;;13.00;99.90;;;;;;5000110;28;20055;-84
2022/10/15 09:43:29;;;;;;;36.88;23.50;;;13.10;99.90;;;;;;4999942;28;20059;-84
2022/10/15 09:45:56;;;;;;;34.22;21.75;;;14.30;99.90;;;;;;4967465;28;20049;-87
2022/10/15 09:48:23;;;;;;;37.55;23.30;;;13.20;99.90;;;;;;4999271;28;20553;-88
2022/10/15 09:50:59;;;;;;;36.75;22.23;;;13.10;99.90;;;;;;4973322;28;20050;-87
2022/10/15 09:53:44;;;;;;;37.00;22.17;;;13.20;99.90;;;;;;4974081;28;20076;-86
2022/10/15 09:56:17;;;;;;;36.97;21.35;;;13.20;99.90;;;;;;4971948;28;20386;-87
2022/10/15 09:58:51;;;;;;;34.72;20.75;;;13.20;99.90;;;;;;4987536;28;20059;-86
2022/10/15 10:01:23;;;;;;;36.10;22.02;;;13.20;99.90;;;;;;4967439;28;20050;-85
2022/10/15 10:04:11;;;;;;;35.17;22.08;;;13.30;99.90;;;;;;4975981;28;20134;-91
2022/10/15 10:06:53;;;;;;;37.17;22.42;;;13.30;99.90;;;;;;4975418;28;20042;-89
2022/10/15 10:09:29;;;;;;;35.20;22.45;;;14.40;99.90;;;;;;4976203;28;20416;-90
2022/10/15 10:11:58;;;;;;;33.58;21.33;;;13.40;99.90;;;;;;4990202;28;20121;-85
2022/10/15 10:15:05;;;;;;;35.28;21.40;;;14.20;99.90;;;;;;4981551;28;20216;-90
2022/10/15 10:17:31;;;;;;;36.10;22.20;;;13.40;99.90;;;;;;4953163;28;20046;-93
2022/10/15 10:20:14;;;;;;;38.47;22.42;;;14.40;99.90;;;;;;4993005;28;20416;-91
2022/10/15 10:22:48;;;;;;;34.17;21.83;;;13.50;99.90;;;;;;4977538;28;20061;-90
2022/10/15 10:25:41;;;;;;;33.25;21.05;;;14.50;99.90;;;;;;4999771;28;20038;-92
2022/10/15 10:28:12;;;;;;;;;;;13.60;99.90;;;;;;4995060;28;20093;-91
2022/10/15 10:30:57;;;;;;;35.10;20.70;;;13.60;99.90;;;;;;4981973;28;19964;-91
2022/10/15 10:33:35;;;;;;;31.90;20.90;;;13.80;99.90;;;;;;4990612;28;20042;-92
2022/10/15 10:36:02;;;;;;;32.80;20.65;;;13.80;99.90;;;;;;4979928;28;20047;-88
2022/10/15 10:38:39;;;;;;;32.47;20.38;;;14.10;99.90;;;;;;4991282;28;20097;-91
2022/10/15 10:41:10;;;;;;;35.72;20.38;;;14.20;99.90;;;;;;4976246;28;20062;-91
2022/10/15 10:43:38;;;;;;;30.25;19.33;;;14.30;99.90;;;;;;4983906;28;20409;-91
2022/10/15 10:46:13;;;;;;;28.83;17.85;;;14.90;99.90;;;;;;4988913;28;20046;-90
2022/10/15 10:48:45;;;;;;;27.45;18.90;;;14.60;99.90;;;;;;4958464;28;20060;-91
2022/10/15 10:51:13;;;;;;;27.05;18.52;;;15.70;99.90;;;;;;4988244;28;20074;-88
2022/10/15 10:53:54;;;;;;;30.67;20.35;;;14.70;99.90;;;;;;4992274;28;20049;-91
2022/10/15 10:56:32;;;;;;;26.60;17.48;;;14.90;99.90;;;;;;4975562;28;20093;-88
2022/10/15 10:59:05;;;;;;;25.83;17.75;;;14.90;99.90;;;;;;4974626;28;20145;-88
2022/10/15 11:01:31;;;;;;;21.60;16.10;;;14.90;99.90;;;;;;4984948;28;20133;-89
2022/10/15 11:03:57;;;;;;;20.90;16.08;;;14.90;99.90;;;;;;4981966;28;20126;-89
2022/10/15 11:06:45;;;;;;;21.95;15.50;;;14.90;99.90;;;;;;5004918;28;20089;-89
2022/10/15 11:09:23;;;;;;;23.75;16.10;;;15.00;99.90;;;;;;4971325;28;20078;-89
2022/10/15 11:12:09;;;;;;;22.05;16.17;;;15.10;99.90;;;;;;4970879;28;20046;-90
2022/10/15 11:14:42;;;;;;;21.10;16.65;;;15.30;99.90;;;;;;4954239;28;20098;-88
2022/10/15 11:17:22;;;;;;;24.00;16.92;;;15.20;99.90;;;;;;4957459;28;20046;-93
2022/10/15 11:20:02;;;;;;;19.92;16.13;;;15.30;99.90;;;;;;4957280;28;20600;-88
2022/10/15 11:22:54;;;;;;;24.02;17.08;;;15.40;99.90;;;;;;4972660;28;20133;-88
2022/10/15 11:25:46;;;;;;;22.38;17.25;;;15.40;99.90;;;;;;4988543;28;20043;-89
2022/10/15 11:28:51;;;;;;;23.67;17.13;;;15.40;99.90;;;;;;4989186;28;20139;-89
2022/10/15 11:31:32;;;;;;;21.90;16.98;;;15.20;99.90;;;;;;4985530;28;20057;-88
2022/10/15 11:34:14;;;;;;;23.00;16.95;;;15.30;99.90;;;;;;4963487;28;20450;-91
2022/10/15 11:37:17;;;;;;;21.10;16.02;;;15.40;99.90;;;;;;4971076;28;20108;-88
2022/10/15 11:40:31;;;;;;;21.58;16.25;;;15.40;99.90;;;;;;4958021;28;20055;-83
2022/10/15 11:43:10;;;;;;;19.20;14.65;;;15.40;99.90;;;;;;4969342;28;20061;-85
2022/10/15 11:45:47;;;;;;;18.85;14.40;;;15.40;99.90;;;;;;4969898;28;20064;-86
2022/10/15 11:48:51;;;;;;;18.60;15.40;;;15.30;99.90;;;;;;4971127;28;20522;-87
2022/10/15 11:51:31;;;;;;;21.17;14.80;;;15.30;99.90;;;;;;4973062;28;20057;-86
2022/10/15 11:54:12;;;;;;;19.27;14.88;;;15.30;99.90;;;;;;5005254;28;20054;-86
2022/10/15 11:56:44;;;;;;;19.45;15.68;;;15.30;99.90;;;;;;4967212;28;20532;-86
2022/10/15 11:59:38;;;;;;;20.50;15.05;;;15.30;99.90;;;;;;4953358;28;20462;-86
2022/10/15 12:02:35;;;;;;;18.95;15.30;;;15.50;99.90;;;;;;4970105;28;20421;-86
2022/10/15 12:05:07;;;;;;;22.30;15.80;;;15.70;99.90;;;;;;4949497;28;20058;-86
2022/10/15 12:07:47;;;;;;;19.08;14.35;;;15.80;99.90;;;;;;4969819;28;20160;-85
2022/10/15 12:10:29;;;;;;;17.98;13.95;;;15.90;99.90;;;;;;4969515;28;20141;-86
2022/10/15 12:13:32;;;;;;;19.55;14.90;;;16.30;99.90;;;;;;4968874;28;20488;-86
2022/10/15 12:16:25;;;;;;;17.50;13.93;;;15.80;99.90;;;;;;4985008;28;20673;-87
2022/10/15 12:19:09;;;;;;;18.52;14.82;;;15.80;99.90;;;;;;4965320;28;20046;-86
2022/10/15 12:21:55;;;;;;;21.30;15.45;;;15.80;99.90;;;;;;4969365;28;20501;-86
2022/10/15 12:24:49;;;;;;;18.27;14.32;;;15.70;99.90;;;;;;4953360;28;20050;-86
2022/10/15 12:27:17;;;;;;;19.02;15.00;;;15.70;99.90;;;;;;4969610;28;20046;-86
2022/10/15 12:29:51;;;;;;;19.02;15.55;;;15.60;99.90;;;;;;4970703;28;20046;-86
2022/10/15 12:32:36;;;;;;;21.63;14.98;;;15.60;99.90;;;;;;4988444;28;20108;-86
2022/10/15 12:35:33;;;;;;;21.77;15.00;;;15.60;99.90;;;;;;4971867;28;20167;-85
2022/10/15 12:38:18;;;;;;;18.40;14.15;;;15.60;99.90;;;;;;4983880;28;20084;-86
2022/10/15 12:40:45;;;;;;;22.35;15.85;;;15.50;99.90;;;;;;4987895;28;20101;-86
2022/10/15 12:43:18;;;;;;;19.92;15.63;;;15.20;99.90;;;;;;4988422;28;20049;-87
2022/10/15 12:45:57;;;;;;;20.20;15.90;;;15.50;99.90;;;;;;4987053;28;20073;-85
2022/10/15 12:48:39;;;;;;;21.58;15.88;;;15.40;99.90;;;;;;4979532;28;20057;-85
2022/10/15 12:51:28;;;;;;;;;;;15.40;99.90;;;;;;4971314;28;20132;-86